Terminal Aerodrome Forecast
Issued by NWS

Home | Current Version | Previous Version | Text Only | Print | Product List | Glossary On
Versions: 1 2 3 4 5 6 7 8 9 10 11 12 13 14 15 16 17 18 19 20 21 22 23 24 25 26 27 28 29 30 31 32 33 34 35
000
FTUS43 KLOT 040549
TAFDPA
TAF
KDPA 040549Z 0406/0506 06004KT P6SM FEW020 SCT040
     FM040700 VRB03KT P6SM BKN030
      TEMPO 0409/0412 4SM BR BKN020
     FM041400 VRB03KT P6SM SCT040
     FM042200 09004KT P6SM SCT050 PROB30 0422/0424 -TSRA SCT040CB
     FM050400 12005KT P6SM SKC=

USA.gov is the U.S. government's official web portal to all federal, state and local government web resources and services.